Pagrindinis puslapis
METAR-TAF:

METAR-TAF

Oro uostai :

Bethel, Aliaska, Jungtinės Amerikos Valstijos

platuma: 60-46-47N, ilguma: 161-50-16W, Aukštis: 38 m

Dabartinis oras

Ataskaita buvo paskelbta 36 minutes, ne 05:53 UTC
Vėjas 3 kt iš Vakarų/Šiaurės Vakarų
Temperatūra 12°C
Drėgmė 67%
Slėgis 1013 hPa
Matomumas: 16.1 km
Apsiniaukę ne aukštis 4100 ft

METAR: PABE 070553Z 30003KT 10SM OVC041 12/06 A2992 RMK AO2 SLP134 T01170056 10139 20111 56002

Laikas: 22:29 (06:29 UTC)

Prognozė

Ataskaita buvo paskelbta 54 minutes, ne 05:35 UTC
Prognozė galioja nuo 07 metu 06 UTC su 08 metu 06 UTC
Vėjas 8 kt iš Vakarų
Matomumas: 10 km
Su prošvaistėmis ne aukštis 5000 ft
Nuo 07 metu 1200 UTC
Vėjas 7 kt iš Vakarų
Matomumas: 10 km
Apsiniaukę ne aukštis 2500 ft
lietus
Nuo 07 metu 2100 UTC
Vėjas 8 kt iš Vakarų/Šiaurės Vakarų
Matomumas: 10 km
Su prošvaistėmis ne aukštis 5000 ft

TAF: PABE 070535Z 0706/0806 28008KT P6SM BKN050 FM071200 28007KT P6SM -RA OVC025 FM072100 30008KT P6SM BKN050

Orai ataskaitas ir orų prognozės (METAR, TAF).

turimą stotys yra geltonos ir raudonos taškus žemėlapyje.

Perkelti pele per norėdami pamatyti stoties vardą.

Tada spustelėkite, norėdami matyti oro stebėjimo ir prognozės.

Norėdami pakeisti žemėlapį: spustelėkite ant žalios mygtukų su juodo kryžiaus žemyn,; žalią mygtuką su brūkšneliu, jei norite nutolinti; arba žalių rodyklių gretimoms žemėlapius.


METAR-TAF: